sensor_id;sensor_type;location;lat;lon;timestamp;temperature;humidity
6174;DHT22;3120;48.796;9.796;2023-07-24T00:02:02;19.70;82.90
6174;DHT22;3120;48.796;9.796;2023-07-24T00:04:31;19.00;90.60
6174;DHT22;3120;48.796;9.796;2023-07-24T00:06:56;18.70;90.20
6174;DHT22;3120;48.796;9.796;2023-07-24T00:09:22;18.50;96.00
6174;DHT22;3120;48.796;9.796;2023-07-24T00:11:47;18.20;99.90
6174;DHT22;3120;48.796;9.796;2023-07-24T00:14:13;18.10;99.90
6174;DHT22;3120;48.796;9.796;2023-07-24T00:16:39;18.00;99.90
6174;DHT22;3120;48.796;9.796;2023-07-24T00:19:05;17.90;99.90
6174;DHT22;3120;48.796;9.796;2023-07-24T00:21:30;17.90;99.90
6174;DHT22;3120;48.796;9.796;2023-07-24T00:23:56;17.90;99.90
6174;DHT22;3120;48.796;9.796;2023-07-24T00:26:22;17.80;99.90
6174;DHT22;3120;48.796;9.796;2023-07-24T00:28:47;17.80;99.90
6174;DHT22;3120;48.796;9.796;2023-07-24T00:31:13;17.60;99.90
6174;DHT22;3120;48.796;9.796;2023-07-24T00:33:38;17.40;99.90
6174;DHT22;3120;48.796;9.796;2023-07-24T00:36:04;17.40;99.90
6174;DHT22;3120;48.796;9.796;2023-07-24T00:38:29;17.30;99.90
6174;DHT22;3120;48.796;9.796;2023-07-24T00:40:55;17.30;99.90
6174;DHT22;3120;48.796;9.796;2023-07-24T00:43:20;17.30;99.90
6174;DHT22;3120;48.796;9.796;2023-07-24T00:45:47;17.20;99.90
6174;DHT22;3120;48.796;9.796;2023-07-24T00:48:13;17.10;99.90
6174;DHT22;3120;48.796;9.796;2023-07-24T00:50:39;17.10;99.90
6174;DHT22;3120;48.796;9.796;2023-07-24T00:53:07;17.20;99.90
6174;DHT22;3120;48.796;9.796;2023-07-24T00:55:32;17.20;99.90
6174;DHT22;3120;48.796;9.796;2023-07-24T00:58:00;17.20;99.90
6174;DHT22;3120;48.796;9.796;2023-07-24T01:00:25;17.00;99.90
6174;DHT22;3120;48.796;9.796;2023-07-24T01:02:52;16.80;99.90
6174;DHT22;3120;48.796;9.796;2023-07-24T01:05:18;16.70;99.90
6174;DHT22;3120;48.796;9.796;2023-07-24T01:07:45;16.80;99.90
6174;DHT22;3120;48.796;9.796;2023-07-24T01:10:10;16.80;99.90
6174;DHT22;3120;48.796;9.796;2023-07-24T01:12:58;16.90;99.90
6174;DHT22;3120;48.796;9.796;2023-07-24T01:15:34;16.70;99.90
6174;DHT22;3120;48.796;9.796;2023-07-24T01:20:40;16.70;99.90
6174;DHT22;3120;48.796;9.796;2023-07-24T01:26:04;16.70;99.90
6174;DHT22;3120;48.796;9.796;2023-07-24T01:28:30;16.70;99.90
6174;DHT22;3120;48.796;9.796;2023-07-24T01:30:56;16.70;99.90
6174;DHT22;3120;48.796;9.796;2023-07-24T01:33:23;16.60;99.90
6174;DHT22;3120;48.796;9.796;2023-07-24T01:35:53;16.60;99.90
6174;DHT22;3120;48.796;9.796;2023-07-24T01:38:21;16.60;99.90
6174;DHT22;3120;48.796;9.796;2023-07-24T01:40:48;16.70;99.90
6174;DHT22;3120;48.796;9.796;2023-07-24T01:43:14;16.60;99.90
6174;DHT22;3120;48.796;9.796;2023-07-24T01:45:40;16.60;99.90
6174;DHT22;3120;48.796;9.796;2023-07-24T01:48:06;16.60;99.90
6174;DHT22;3120;48.796;9.796;2023-07-24T01:50:31;16.60;99.90
6174;DHT22;3120;48.796;9.796;2023-07-24T01:52:57;16.50;99.90
6174;DHT22;3120;48.796;9.796;2023-07-24T01:55:23;16.50;99.90
6174;DHT22;3120;48.796;9.796;2023-07-24T01:57:48;16.50;99.90
6174;DHT22;3120;48.796;9.796;2023-07-24T02:00:14;16.50;99.90
6174;DHT22;3120;48.796;9.796;2023-07-24T02:02:39;16.50;99.90
6174;DHT22;3120;48.796;9.796;2023-07-24T02:05:05;16.60;99.90
6174;DHT22;3120;48.796;9.796;2023-07-24T02:07:31;16.70;99.90
6174;DHT22;3120;48.796;9.796;2023-07-24T02:09:56;16.60;99.90
6174;DHT22;3120;48.796;9.796;2023-07-24T02:12:22;16.70;99.90
6174;DHT22;3120;48.796;9.796;2023-07-24T02:14:48;16.70;99.90
6174;DHT22;3120;48.796;9.796;2023-07-24T02:17:15;16.70;99.90
6174;DHT22;3120;48.796;9.796;2023-07-24T02:19:41;16.60;99.90
6174;DHT22;3120;48.796;9.796;2023-07-24T02:22:07;16.60;99.90
6174;DHT22;3120;48.796;9.796;2023-07-24T02:24:32;16.60;99.90
6174;DHT22;3120;48.796;9.796;2023-07-24T02:26:58;16.60;99.90
6174;DHT22;3120;48.796;9.796;2023-07-24T02:29:23;16.60;99.90
6174;DHT22;3120;48.796;9.796;2023-07-24T02:31:50;16.70;99.90
6174;DHT22;3120;48.796;9.796;2023-07-24T02:34:15;16.70;99.90
6174;DHT22;3120;48.796;9.796;2023-07-24T02:36:41;16.60;99.90
6174;DHT22;3120;48.796;9.796;2023-07-24T02:39:07;16.60;99.90
6174;DHT22;3120;48.796;9.796;2023-07-24T02:41:32;16.50;99.90
6174;DHT22;3120;48.796;9.796;2023-07-24T02:43:58;16.40;99.90
6174;DHT22;3120;48.796;9.796;2023-07-24T02:46:23;16.30;99.90
6174;DHT22;3120;48.796;9.796;2023-07-24T02:48:51;16.20;99.90
6174;DHT22;3120;48.796;9.796;2023-07-24T02:51:16;16.20;99.90
6174;DHT22;3120;48.796;9.796;2023-07-24T02:53:42;16.20;99.90
6174;DHT22;3120;48.796;9.796;2023-07-24T02:56:07;16.20;99.90
6174;DHT22;3120;48.796;9.796;2023-07-24T02:58:33;16.20;99.90
6174;DHT22;3120;48.796;9.796;2023-07-24T03:01:06;16.10;99.90
6174;DHT22;3120;48.796;9.796;2023-07-24T03:03:32;16.10;99.90
6174;DHT22;3120;48.796;9.796;2023-07-24T03:05:58;16.10;99.90
6174;DHT22;3120;48.796;9.796;2023-07-24T03:08:24;16.10;99.90
6174;DHT22;3120;48.796;9.796;2023-07-24T03:10:49;16.10;99.90
6174;DHT22;3120;48.796;9.796;2023-07-24T03:13:15;16.00;99.90
6174;DHT22;3120;48.796;9.796;2023-07-24T03:15:40;16.00;99.90
6174;DHT22;3120;48.796;9.796;2023-07-24T03:18:06;16.10;99.90
6174;DHT22;3120;48.796;9.796;2023-07-24T03:20:31;16.00;99.90
6174;DHT22;3120;48.796;9.796;2023-07-24T03:22:57;16.00;99.90
6174;DHT22;3120;48.796;9.796;2023-07-24T03:25:22;16.00;99.90
6174;DHT22;3120;48.796;9.796;2023-07-24T03:27:48;15.90;99.90
6174;DHT22;3120;48.796;9.796;2023-07-24T03:30:14;15.90;99.90
6174;DHT22;3120;48.796;9.796;2023-07-24T03:32:39;15.80;99.90
6174;DHT22;3120;48.796;9.796;2023-07-24T03:35:06;15.80;99.90
6174;DHT22;3120;48.796;9.796;2023-07-24T03:37:33;15.70;99.90
6174;DHT22;3120;48.796;9.796;2023-07-24T03:39:59;15.70;99.90
6174;DHT22;3120;48.796;9.796;2023-07-24T03:42:29;15.70;99.90
6174;DHT22;3120;48.796;9.796;2023-07-24T03:44:56;15.70;99.90
6174;DHT22;3120;48.796;9.796;2023-07-24T03:47:22;15.80;99.90
6174;DHT22;3120;48.796;9.796;2023-07-24T03:49:48;15.80;99.90
6174;DHT22;3120;48.796;9.796;2023-07-24T03:52:13;15.70;99.90
6174;DHT22;3120;48.796;9.796;2023-07-24T03:54:39;15.80;99.90
6174;DHT22;3120;48.796;9.796;2023-07-24T03:57:05;15.70;99.90
6174;DHT22;3120;48.796;9.796;2023-07-24T03:59:31;15.70;99.90
6174;DHT22;3120;48.796;9.796;2023-07-24T04:01:57;15.70;99.90
6174;DHT22;3120;48.796;9.796;2023-07-24T04:04:23;15.70;99.90
6174;DHT22;3120;48.796;9.796;2023-07-24T04:06:48;15.80;99.90
6174;DHT22;3120;48.796;9.796;2023-07-24T04:09:14;15.80;99.90
6174;DHT22;3120;48.796;9.796;2023-07-24T04:11:41;15.80;99.90
6174;DHT22;3120;48.796;9.796;2023-07-24T04:14:06;15.80;99.90
6174;DHT22;3120;48.796;9.796;2023-07-24T04:16:32;15.80;99.90
6174;DHT22;3120;48.796;9.796;2023-07-24T04:18:57;15.80;99.90
6174;DHT22;3120;48.796;9.796;2023-07-24T04:21:23;15.80;99.90
6174;DHT22;3120;48.796;9.796;2023-07-24T04:23:48;15.90;99.90
6174;DHT22;3120;48.796;9.796;2023-07-24T04:26:14;16.00;99.90
6174;DHT22;3120;48.796;9.796;2023-07-24T04:28:39;16.10;99.90
6174;DHT22;3120;48.796;9.796;2023-07-24T04:31:05;16.10;99.90
6174;DHT22;3120;48.796;9.796;2023-07-24T04:33:30;16.10;99.90
6174;DHT22;3120;48.796;9.796;2023-07-24T04:35:56;16.20;99.90
6174;DHT22;3120;48.796;9.796;2023-07-24T04:38:22;16.20;99.90
6174;DHT22;3120;48.796;9.796;2023-07-24T04:40:47;16.30;99.90
6174;DHT22;3120;48.796;9.796;2023-07-24T04:43:13;16.40;99.90
6174;DHT22;3120;48.796;9.796;2023-07-24T04:45:38;16.40;99.90
6174;DHT22;3120;48.796;9.796;2023-07-24T04:48:04;16.40;99.90
6174;DHT22;3120;48.796;9.796;2023-07-24T04:50:30;16.50;99.90
6174;DHT22;3120;48.796;9.796;2023-07-24T04:52:56;16.60;99.90
6174;DHT22;3120;48.796;9.796;2023-07-24T04:55:22;16.70;99.90
6174;DHT22;3120;48.796;9.796;2023-07-24T04:57:48;16.90;99.90
6174;DHT22;3120;48.796;9.796;2023-07-24T05:00:14;17.00;99.90
6174;DHT22;3120;48.796;9.796;2023-07-24T05:02:40;17.00;99.90
6174;DHT22;3120;48.796;9.796;2023-07-24T05:05:06;17.10;99.90
6174;DHT22;3120;48.796;9.796;2023-07-24T05:07:31;17.10;99.90
6174;DHT22;3120;48.796;9.796;2023-07-24T05:10:34;17.10;99.90
6174;DHT22;3120;48.796;9.796;2023-07-24T05:12:59;17.20;99.90
6174;DHT22;3120;48.796;9.796;2023-07-24T05:15:26;17.30;99.90
6174;DHT22;3120;48.796;9.796;2023-07-24T05:17:52;17.20;99.90
6174;DHT22;3120;48.796;9.796;2023-07-24T05:20:17;17.30;99.90
6174;DHT22;3120;48.796;9.796;2023-07-24T05:22:43;17.30;99.90
6174;DHT22;3120;48.796;9.796;2023-07-24T05:25:08;17.50;99.90
6174;DHT22;3120;48.796;9.796;2023-07-24T05:27:34;17.50;99.90
6174;DHT22;3120;48.796;9.796;2023-07-24T05:30:00;17.70;99.90
6174;DHT22;3120;48.796;9.796;2023-07-24T05:32:26;17.90;99.90
6174;DHT22;3120;48.796;9.796;2023-07-24T05:34:52;18.00;99.90
6174;DHT22;3120;48.796;9.796;2023-07-24T05:37:17;18.20;99.90
6174;DHT22;3120;48.796;9.796;2023-07-24T05:39:43;18.40;99.90
6174;DHT22;3120;48.796;9.796;2023-07-24T05:42:08;18.40;99.90
6174;DHT22;3120;48.796;9.796;2023-07-24T05:44:34;18.70;99.90
6174;DHT22;3120;48.796;9.796;2023-07-24T05:47:02;19.00;99.90
6174;DHT22;3120;48.796;9.796;2023-07-24T05:49:28;19.30;99.90
6174;DHT22;3120;48.796;9.796;2023-07-24T05:51:54;19.50;99.90
6174;DHT22;3120;48.796;9.796;2023-07-24T05:54:19;19.80;99.90
6174;DHT22;3120;48.796;9.796;2023-07-24T05:56:45;19.90;99.90
6174;DHT22;3120;48.796;9.796;2023-07-24T05:59:10;19.90;99.90
6174;DHT22;3120;48.796;9.796;2023-07-24T06:01:36;20.40;99.90
6174;DHT22;3120;48.796;9.796;2023-07-24T06:04:01;20.50;99.90
6174;DHT22;3120;48.796;9.796;2023-07-24T06:06:27;20.90;95.50
6174;DHT22;3120;48.796;9.796;2023-07-24T06:08:53;20.90;97.30
6174;DHT22;3120;48.796;9.796;2023-07-24T06:11:19;21.10;95.60
6174;DHT22;3120;48.796;9.796;2023-07-24T06:13:44;21.20;95.30
6174;DHT22;3120;48.796;9.796;2023-07-24T06:16:10;21.20;94.20
6174;DHT22;3120;48.796;9.796;2023-07-24T06:18:38;21.20;94.70
6174;DHT22;3120;48.796;9.796;2023-07-24T06:21:03;21.30;93.90
6174;DHT22;3120;48.796;9.796;2023-07-24T06:23:29;21.50;92.80
6174;DHT22;3120;48.796;9.796;2023-07-24T06:25:54;21.40;92.40
6174;DHT22;3120;48.796;9.796;2023-07-24T06:28:20;21.40;93.00
6174;DHT22;3120;48.796;9.796;2023-07-24T06:30:46;21.30;94.40
6174;DHT22;3120;48.796;9.796;2023-07-24T06:33:12;21.20;94.80
6174;DHT22;3120;48.796;9.796;2023-07-24T06:35:37;21.10;97.40
6174;DHT22;3120;48.796;9.796;2023-07-24T06:38:03;21.00;96.70
6174;DHT22;3120;48.796;9.796;2023-07-24T06:40:28;21.10;99.00
6174;DHT22;3120;48.796;9.796;2023-07-24T06:42:54;21.00;97.00
6174;DHT22;3120;48.796;9.796;2023-07-24T06:45:20;21.30;96.80
6174;DHT22;3120;48.796;9.796;2023-07-24T06:47:45;21.10;97.50
6174;DHT22;3120;48.796;9.796;2023-07-24T06:50:11;21.00;99.30
6174;DHT22;3120;48.796;9.796;2023-07-24T06:52:36;20.80;99.90
6174;DHT22;3120;48.796;9.796;2023-07-24T06:55:05;20.70;99.90
6174;DHT22;3120;48.796;9.796;2023-07-24T06:57:30;20.80;99.90
6174;DHT22;3120;48.796;9.796;2023-07-24T06:59:56;21.10;98.70
6174;DHT22;3120;48.796;9.796;2023-07-24T07:02:21;21.20;98.60
6174;DHT22;3120;48.796;9.796;2023-07-24T07:04:47;21.40;98.40
6174;DHT22;3120;48.796;9.796;2023-07-24T07:07:12;21.30;99.30
6174;DHT22;3120;48.796;9.796;2023-07-24T07:09:38;21.40;99.90
6174;DHT22;3120;48.796;9.796;2023-07-24T07:12:04;21.40;99.10
6174;DHT22;3120;48.796;9.796;2023-07-24T07:14:29;21.60;96.10
6174;DHT22;3120;48.796;9.796;2023-07-24T07:16:55;21.70;97.10
6174;DHT22;3120;48.796;9.796;2023-07-24T07:19:20;21.80;97.00
6174;DHT22;3120;48.796;9.796;2023-07-24T07:21:46;22.00;95.40
6174;DHT22;3120;48.796;9.796;2023-07-24T07:24:11;22.10;96.20
6174;DHT22;3120;48.796;9.796;2023-07-24T07:26:37;22.10;96.60
6174;DHT22;3120;48.796;9.796;2023-07-24T07:29:02;22.10;97.40
6174;DHT22;3120;48.796;9.796;2023-07-24T07:31:28;22.00;97.60
6174;DHT22;3120;48.796;9.796;2023-07-24T07:33:53;22.00;98.80
6174;DHT22;3120;48.796;9.796;2023-07-24T07:36:19;21.80;99.50
6174;DHT22;3120;48.796;9.796;2023-07-24T07:38:47;21.70;99.80
6174;DHT22;3120;48.796;9.796;2023-07-24T07:41:12;21.70;99.80
6174;DHT22;3120;48.796;9.796;2023-07-24T07:43:38;21.70;99.30
6174;DHT22;3120;48.796;9.796;2023-07-24T07:46:04;21.80;98.70
6174;DHT22;3120;48.796;9.796;2023-07-24T07:48:29;21.90;97.10
6174;DHT22;3120;48.796;9.796;2023-07-24T07:50:55;22.10;95.80
6174;DHT22;3120;48.796;9.796;2023-07-24T07:53:21;22.30;95.90
6174;DHT22;3120;48.796;9.796;2023-07-24T07:55:46;22.40;95.00
6174;DHT22;3120;48.796;9.796;2023-07-24T07:58:19;22.40;94.90
6174;DHT22;3120;48.796;9.796;2023-07-24T08:00:45;22.50;94.90
6174;DHT22;3120;48.796;9.796;2023-07-24T08:03:10;22.70;95.20
6174;DHT22;3120;48.796;9.796;2023-07-24T08:05:36;22.90;94.30
6174;DHT22;3120;48.796;9.796;2023-07-24T08:08:02;23.10;92.40
6174;DHT22;3120;48.796;9.796;2023-07-24T08:10:27;23.00;91.50
6174;DHT22;3120;48.796;9.796;2023-07-24T08:12:53;23.20;90.60
6174;DHT22;3120;48.796;9.796;2023-07-24T08:15:18;23.20;88.70
6174;DHT22;3120;48.796;9.796;2023-07-24T08:17:44;23.20;89.00
6174;DHT22;3120;48.796;9.796;2023-07-24T08:20:10;23.30;86.90
6174;DHT22;3120;48.796;9.796;2023-07-24T08:22:35;23.30;87.80
6174;DHT22;3120;48.796;9.796;2023-07-24T08:25:01;23.40;87.40
6174;DHT22;3120;48.796;9.796;2023-07-24T08:27:26;23.30;88.40
6174;DHT22;3120;48.796;9.796;2023-07-24T08:29:52;23.20;87.30
6174;DHT22;3120;48.796;9.796;2023-07-24T08:32:18;23.40;86.50
6174;DHT22;3120;48.796;9.796;2023-07-24T08:34:44;23.50;87.10
6174;DHT22;3120;48.796;9.796;2023-07-24T08:37:11;23.40;85.10
6174;DHT22;3120;48.796;9.796;2023-07-24T08:39:36;23.40;84.50
6174;DHT22;3120;48.796;9.796;2023-07-24T08:42:12;23.50;83.20
6174;DHT22;3120;48.796;9.796;2023-07-24T08:44:38;23.70;80.50
6174;DHT22;3120;48.796;9.796;2023-07-24T08:47:04;23.80;78.60
6174;DHT22;3120;48.796;9.796;2023-07-24T08:49:32;24.10;76.80
6174;DHT22;3120;48.796;9.796;2023-07-24T08:51:57;24.30;72.90
6174;DHT22;3120;48.796;9.796;2023-07-24T08:54:24;24.50;71.70
6174;DHT22;3120;48.796;9.796;2023-07-24T08:56:52;24.60;71.00
6174;DHT22;3120;48.796;9.796;2023-07-24T08:59:18;24.70;71.40
6174;DHT22;3120;48.796;9.796;2023-07-24T09:01:43;24.80;70.10
6174;DHT22;3120;48.796;9.796;2023-07-24T09:04:09;24.90;69.90
6174;DHT22;3120;48.796;9.796;2023-07-24T09:06:35;25.10;69.00
6174;DHT22;3120;48.796;9.796;2023-07-24T09:09:01;25.30;68.40
6174;DHT22;3120;48.796;9.796;2023-07-24T09:11:26;25.30;66.40
6174;DHT22;3120;48.796;9.796;2023-07-24T09:13:52;24.90;68.60
6174;DHT22;3120;48.796;9.796;2023-07-24T09:16:25;24.70;69.90
6174;DHT22;3120;48.796;9.796;2023-07-24T09:18:52;24.30;72.60
6174;DHT22;3120;48.796;9.796;2023-07-24T09:21:31;24.20;75.10
6174;DHT22;3120;48.796;9.796;2023-07-24T09:23:57;24.00;74.10
6174;DHT22;3120;48.796;9.796;2023-07-24T09:26:23;23.60;76.10
6174;DHT22;3120;48.796;9.796;2023-07-24T09:28:53;23.50;77.70
6174;DHT22;3120;48.796;9.796;2023-07-24T09:31:19;23.10;83.40
6174;DHT22;3120;48.796;9.796;2023-07-24T09:33:44;22.90;83.20
6174;DHT22;3120;48.796;9.796;2023-07-24T09:36:10;22.90;81.90
6174;DHT22;3120;48.796;9.796;2023-07-24T09:38:37;22.80;83.10
6174;DHT22;3120;48.796;9.796;2023-07-24T09:41:04;22.80;83.90
6174;DHT22;3120;48.796;9.796;2023-07-24T09:43:30;23.00;81.50
6174;DHT22;3120;48.796;9.796;2023-07-24T09:45:57;23.30;81.00
6174;DHT22;3120;48.796;9.796;2023-07-24T09:48:27;23.70;80.50
6174;DHT22;3120;48.796;9.796;2023-07-24T09:50:56;24.00;82.00
6174;DHT22;3120;48.796;9.796;2023-07-24T09:53:52;24.40;79.70
6174;DHT22;3120;48.796;9.796;2023-07-24T09:56:19;25.10;71.10
6174;DHT22;3120;48.796;9.796;2023-07-24T09:58:46;25.20;69.40
6174;DHT22;3120;48.796;9.796;2023-07-24T10:01:15;25.00;69.60
6174;DHT22;3120;48.796;9.796;2023-07-24T10:03:47;24.70;71.30
6174;DHT22;3120;48.796;9.796;2023-07-24T10:06:13;24.50;72.70
6174;DHT22;3120;48.796;9.796;2023-07-24T10:08:41;24.20;74.10
6174;DHT22;3120;48.796;9.796;2023-07-24T10:11:13;24.10;75.60
6174;DHT22;3120;48.796;9.796;2023-07-24T10:13:40;23.90;77.20
6174;DHT22;3120;48.796;9.796;2023-07-24T10:16:06;23.70;79.80
6174;DHT22;3120;48.796;9.796;2023-07-24T10:18:34;23.40;80.50
6174;DHT22;3120;48.796;9.796;2023-07-24T10:21:09;23.20;86.50
6174;DHT22;3120;48.796;9.796;2023-07-24T10:23:36;23.00;84.10
6174;DHT22;3120;48.796;9.796;2023-07-24T10:26:05;23.00;84.40
6174;DHT22;3120;48.796;9.796;2023-07-24T10:28:32;23.00;83.60
6174;DHT22;3120;48.796;9.796;2023-07-24T10:30:58;22.80;85.80
6174;DHT22;3120;48.796;9.796;2023-07-24T10:33:24;22.70;88.20
6174;DHT22;3120;48.796;9.796;2023-07-24T10:35:54;22.50;90.00
6174;DHT22;3120;48.796;9.796;2023-07-24T10:38:20;22.40;89.70
6174;DHT22;3120;48.796;9.796;2023-07-24T10:41:02;22.10;94.30
6174;DHT22;3120;48.796;9.796;2023-07-24T10:43:28;22.00;95.00
6174;DHT22;3120;48.796;9.796;2023-07-24T10:45:54;22.00;96.20
6174;DHT22;3120;48.796;9.796;2023-07-24T10:48:23;21.90;96.30
6174;DHT22;3120;48.796;9.796;2023-07-24T10:50:50;21.80;98.10
6174;DHT22;3120;48.796;9.796;2023-07-24T10:53:19;21.60;99.90
6174;DHT22;3120;48.796;9.796;2023-07-24T10:55:47;21.30;99.90
6174;DHT22;3120;48.796;9.796;2023-07-24T10:58:16;20.90;99.90
6174;DHT22;3120;48.796;9.796;2023-07-24T11:00:45;20.70;99.90
6174;DHT22;3120;48.796;9.796;2023-07-24T11:03:14;20.50;99.90
6174;DHT22;3120;48.796;9.796;2023-07-24T11:05:44;20.30;99.90
6174;DHT22;3120;48.796;9.796;2023-07-24T11:08:15;20.30;99.90
6174;DHT22;3120;48.796;9.796;2023-07-24T11:10:49;20.30;99.90
6174;DHT22;3120;48.796;9.796;2023-07-24T19:45:01;18.10;99.90
6174;DHT22;3120;48.796;9.796;2023-07-24T19:47:27;18.10;99.90
6174;DHT22;3120;48.796;9.796;2023-07-24T19:49:52;18.10;99.90
6174;DHT22;3120;48.796;9.796;2023-07-24T19:52:18;18.00;99.90
6174;DHT22;3120;48.796;9.796;2023-07-24T19:54:44;17.90;99.90
6174;DHT22;3120;48.796;9.796;2023-07-24T19:57:09;17.70;99.90
6174;DHT22;3120;48.796;9.796;2023-07-24T19:59:35;17.60;99.90
6174;DHT22;3120;48.796;9.796;2023-07-24T20:02:01;17.50;99.90
6174;DHT22;3120;48.796;9.796;2023-07-24T20:04:27;17.50;99.90
6174;DHT22;3120;48.796;9.796;2023-07-24T20:06:53;17.30;99.90
6174;DHT22;3120;48.796;9.796;2023-07-24T20:09:19;17.30;99.90
6174;DHT22;3120;48.796;9.796;2023-07-24T20:11:44;17.30;99.90
6174;DHT22;3120;48.796;9.796;2023-07-24T20:14:10;17.30;99.90
6174;DHT22;3120;48.796;9.796;2023-07-24T20:16:36;17.20;99.90
6174;DHT22;3120;48.796;9.796;2023-07-24T20:19:02;17.20;99.90
6174;DHT22;3120;48.796;9.796;2023-07-24T20:21:28;17.20;99.90
6174;DHT22;3120;48.796;9.796;2023-07-24T20:23:54;17.10;99.90
6174;DHT22;3120;48.796;9.796;2023-07-24T20:26:20;17.10;99.90
6174;DHT22;3120;48.796;9.796;2023-07-24T20:28:47;17.00;99.90
6174;DHT22;3120;48.796;9.796;2023-07-24T20:31:12;17.00;99.90
6174;DHT22;3120;48.796;9.796;2023-07-24T20:33:38;17.10;99.90
6174;DHT22;3120;48.796;9.796;2023-07-24T20:36:08;16.90;99.90
6174;DHT22;3120;48.796;9.796;2023-07-24T20:38:38;16.80;99.90
6174;DHT22;3120;48.796;9.796;2023-07-24T20:41:03;16.80;99.90
6174;DHT22;3120;48.796;9.796;2023-07-24T20:43:29;16.70;99.90
6174;DHT22;3120;48.796;9.796;2023-07-24T20:45:55;16.90;99.90
6174;DHT22;3120;48.796;9.796;2023-07-24T20:48:21;16.60;99.90
6174;DHT22;3120;48.796;9.796;2023-07-24T20:50:48;16.60;99.90
6174;DHT22;3120;48.796;9.796;2023-07-24T20:53:14;16.70;99.90
6174;DHT22;3120;48.796;9.796;2023-07-24T20:55:40;16.40;99.90
6174;DHT22;3120;48.796;9.796;2023-07-24T21:00:59;16.40;99.90
6174;DHT22;3120;48.796;9.796;2023-07-24T21:03:25;16.30;99.90
6174;DHT22;3120;48.796;9.796;2023-07-24T21:05:51;16.30;99.90
6174;DHT22;3120;48.796;9.796;2023-07-24T21:08:17;16.30;99.90
6174;DHT22;3120;48.796;9.796;2023-07-24T21:10:42;16.20;99.90
6174;DHT22;3120;48.796;9.796;2023-07-24T21:13:08;16.20;99.90
6174;DHT22;3120;48.796;9.796;2023-07-24T21:15:35;16.10;99.90
6174;DHT22;3120;48.796;9.796;2023-07-24T21:18:00;16.10;99.90
6174;DHT22;3120;48.796;9.796;2023-07-24T21:20:26;16.00;99.90
6174;DHT22;3120;48.796;9.796;2023-07-24T21:22:51;16.10;99.90
6174;DHT22;3120;48.796;9.796;2023-07-24T21:25:17;16.10;99.90
6174;DHT22;3120;48.796;9.796;2023-07-24T21:27:43;16.10;99.90
6174;DHT22;3120;48.796;9.796;2023-07-24T21:30:10;16.10;99.90
6174;DHT22;3120;48.796;9.796;2023-07-24T21:32:36;16.10;99.90
6174;DHT22;3120;48.796;9.796;2023-07-24T21:35:02;16.10;99.90
6174;DHT22;3120;48.796;9.796;2023-07-24T21:37:28;16.00;99.90
6174;DHT22;3120;48.796;9.796;2023-07-24T21:39:53;15.90;99.90
6174;DHT22;3120;48.796;9.796;2023-07-24T21:42:19;15.90;99.90
6174;DHT22;3120;48.796;9.796;2023-07-24T21:44:45;15.90;99.90
6174;DHT22;3120;48.796;9.796;2023-07-24T21:47:10;15.80;99.90
6174;DHT22;3120;48.796;9.796;2023-07-24T21:49:36;15.80;99.90
6174;DHT22;3120;48.796;9.796;2023-07-24T21:52:03;15.70;99.90
6174;DHT22;3120;48.796;9.796;2023-07-24T21:54:29;15.70;99.90
6174;DHT22;3120;48.796;9.796;2023-07-24T21:56:54;15.80;99.90
6174;DHT22;3120;48.796;9.796;2023-07-24T21:59:20;15.80;99.90
6174;DHT22;3120;48.796;9.796;2023-07-24T22:01:45;15.70;99.90
6174;DHT22;3120;48.796;9.796;2023-07-24T22:04:11;15.80;99.90
6174;DHT22;3120;48.796;9.796;2023-07-24T22:06:36;15.70;99.90
6174;DHT22;3120;48.796;9.796;2023-07-24T22:09:02;15.60;99.90
6174;DHT22;3120;48.796;9.796;2023-07-24T22:11:28;15.60;99.90
6174;DHT22;3120;48.796;9.796;2023-07-24T22:13:56;15.60;99.90
6174;DHT22;3120;48.796;9.796;2023-07-24T22:16:21;15.40;99.90
6174;DHT22;3120;48.796;9.796;2023-07-24T22:18:47;15.50;99.90
6174;DHT22;3120;48.796;9.796;2023-07-24T22:21:12;15.50;99.90
6174;DHT22;3120;48.796;9.796;2023-07-24T22:23:38;15.60;99.90
6174;DHT22;3120;48.796;9.796;2023-07-24T22:26:04;15.50;99.90
6174;DHT22;3120;48.796;9.796;2023-07-24T22:28:29;15.50;99.90
6174;DHT22;3120;48.796;9.796;2023-07-24T22:30:55;15.40;99.90
6174;DHT22;3120;48.796;9.796;2023-07-24T22:33:20;15.40;99.90
6174;DHT22;3120;48.796;9.796;2023-07-24T22:35:46;15.40;99.90
6174;DHT22;3120;48.796;9.796;2023-07-24T22:38:12;15.30;99.90
6174;DHT22;3120;48.796;9.796;2023-07-24T22:40:38;15.30;99.90
6174;DHT22;3120;48.796;9.796;2023-07-24T22:43:03;15.30;99.90
6174;DHT22;3120;48.796;9.796;2023-07-24T22:45:29;15.30;99.90
6174;DHT22;3120;48.796;9.796;2023-07-24T22:47:55;15.40;99.90
6174;DHT22;3120;48.796;9.796;2023-07-24T22:50:20;15.30;99.90
6174;DHT22;3120;48.796;9.796;2023-07-24T22:52:47;15.90;99.90
6174;DHT22;3120;48.796;9.796;2023-07-24T22:55:12;15.40;99.90
6174;DHT22;3120;48.796;9.796;2023-07-24T22:57:40;15.40;99.90
6174;DHT22;3120;48.796;9.796;2023-07-24T23:00:06;15.30;99.90
6174;DHT22;3120;48.796;9.796;2023-07-24T23:02:32;15.30;99.90
6174;DHT22;3120;48.796;9.796;2023-07-24T23:04:57;15.30;99.90
6174;DHT22;3120;48.796;9.796;2023-07-24T23:07:23;15.30;99.90
6174;DHT22;3120;48.796;9.796;2023-07-24T23:09:48;15.30;99.90
6174;DHT22;3120;48.796;9.796;2023-07-24T23:12:14;15.30;99.90
6174;DHT22;3120;48.796;9.796;2023-07-24T23:14:39;15.40;99.90
